sensor_id;sensor_type;location;lat;lon;timestamp;pressure;altitude;pressure_sealevel;temperature;humidity
47080;BME280;33067;49.296;14.470;2022-10-19T00:02:02;97918.74;;;17.72;42.96
47080;BME280;33067;49.296;14.470;2022-10-19T00:04:28;97921.09;;;17.55;42.76
47080;BME280;33067;49.296;14.470;2022-10-19T00:06:54;97924.41;;;17.31;42.75
47080;BME280;33067;49.296;14.470;2022-10-19T00:09:19;97926.99;;;17.62;42.61
47080;BME280;33067;49.296;14.470;2022-10-19T00:11:47;97926.18;;;17.39;42.58
47080;BME280;33067;49.296;14.470;2022-10-19T00:14:12;97923.82;;;17.63;42.57
47080;BME280;33067;49.296;14.470;2022-10-19T00:16:37;97925.07;;;17.37;42.20
47080;BME280;33067;49.296;14.470;2022-10-19T00:19:04;97935.19;;;17.50;42.32
47080;BME280;33067;49.296;14.470;2022-10-19T00:21:27;97940.72;;;17.52;42.32
47080;BME280;33067;49.296;14.470;2022-10-19T00:23:52;97943.97;;;17.49;42.31
47080;BME280;33067;49.296;14.470;2022-10-19T00:26:17;97940.83;;;17.40;42.57
47080;BME280;33067;49.296;14.470;2022-10-19T00:28:43;97945.18;;;17.72;42.50
47080;BME280;33067;49.296;14.470;2022-10-19T00:31:10;97951.23;;;17.49;42.56
47080;BME280;33067;49.296;14.470;2022-10-19T00:33:33;97954.60;;;17.21;42.50
47080;BME280;33067;49.296;14.470;2022-10-19T00:35:58;97955.23;;;17.43;42.55
47080;BME280;33067;49.296;14.470;2022-10-19T00:38:23;97953.02;;;17.65;42.55
47080;BME280;33067;49.296;14.470;2022-10-19T00:40:49;97951.05;;;17.15;42.81
47080;BME280;33067;49.296;14.470;2022-10-19T00:43:15;97946.84;;;17.44;42.79
47080;BME280;33067;49.296;14.470;2022-10-19T00:45:39;97947.18;;;17.16;42.66
47080;BME280;33067;49.296;14.470;2022-10-19T00:48:04;97947.97;;;17.25;42.84
47080;BME280;33067;49.296;14.470;2022-10-19T00:50:30;97945.93;;;17.54;42.83
47080;BME280;33067;49.296;14.470;2022-10-19T00:52:55;97940.60;;;17.03;42.82
47080;BME280;33067;49.296;14.470;2022-10-19T00:55:20;97935.97;;;17.56;43.01
47080;BME280;33067;49.296;14.470;2022-10-19T00:57:46;97934.44;;;17.32;42.68
47080;BME280;33067;49.296;14.470;2022-10-19T01:00:12;97931.61;;;17.13;42.90
47080;BME280;33067;49.296;14.470;2022-10-19T01:02:37;97930.62;;;17.41;43.02
47080;BME280;33067;49.296;14.470;2022-10-19T01:05:04;97927.36;;;17.20;42.99
47080;BME280;33067;49.296;14.470;2022-10-19T01:07:29;97922.67;;;17.11;43.01
47080;BME280;33067;49.296;14.470;2022-10-19T01:09:55;97916.67;;;17.40;43.18
47080;BME280;33067;49.296;14.470;2022-10-19T01:12:36;97914.90;;;17.46;43.18
47080;BME280;33067;49.296;14.470;2022-10-19T01:14:57;97919.58;;;17.52;43.17
47080;BME280;33067;49.296;14.470;2022-10-19T01:17:16;97922.42;;;17.31;43.11
47080;BME280;33067;49.296;14.470;2022-10-19T01:22:08;97918.67;;;17.21;42.93
47080;BME280;33067;49.296;14.470;2022-10-19T01:24:39;97916.14;;;17.13;43.23
47080;BME280;33067;49.296;14.470;2022-10-19T01:27:09;97913.10;;;17.13;43.31
47080;BME280;33067;49.296;14.470;2022-10-19T01:29:25;97909.16;;;17.40;43.50
47080;BME280;33067;49.296;14.470;2022-10-19T01:31:46;97904.05;;;17.55;43.38
47080;BME280;33067;49.296;14.470;2022-10-19T01:34:13;97909.43;;;17.06;43.38
47080;BME280;33067;49.296;14.470;2022-10-19T01:36:39;97910.05;;;17.54;43.29
47080;BME280;33067;49.296;14.470;2022-10-19T01:39:04;97909.93;;;17.52;43.28
47080;BME280;33067;49.296;14.470;2022-10-19T01:41:30;97909.69;;;17.34;43.28
47080;BME280;33067;49.296;14.470;2022-10-19T01:43:57;97905.72;;;17.62;43.33
47080;BME280;33067;49.296;14.470;2022-10-19T01:46:19;97901.02;;;16.74;42.64
47080;BME280;33067;49.296;14.470;2022-10-19T01:48:46;97899.36;;;17.86;42.25
47080;BME280;33067;49.296;14.470;2022-10-19T01:51:11;97895.95;;;17.65;42.40
47080;BME280;33067;49.296;14.470;2022-10-19T01:53:37;97899.22;;;17.43;42.60
47080;BME280;33067;49.296;14.470;2022-10-19T01:56:00;97898.06;;;17.56;42.74
47080;BME280;33067;49.296;14.470;2022-10-19T01:58:26;97896.99;;;17.25;42.90
47080;BME280;33067;49.296;14.470;2022-10-19T02:00:49;97893.68;;;17.29;42.78
47080;BME280;33067;49.296;14.470;2022-10-19T02:03:14;97896.97;;;17.31;42.70
47080;BME280;33067;49.296;14.470;2022-10-19T02:05:40;97897.32;;;17.54;42.79
47080;BME280;33067;49.296;14.470;2022-10-19T02:08:09;97895.76;;;17.59;42.67
47080;BME280;33067;49.296;14.470;2022-10-19T02:13:00;97887.89;;;18.01;42.48
47080;BME280;33067;49.296;14.470;2022-10-19T02:15:26;97889.19;;;17.61;43.03
47080;BME280;33067;49.296;14.470;2022-10-19T02:17:52;97891.82;;;17.29;43.43
47080;BME280;33067;49.296;14.470;2022-10-19T02:20:16;97894.62;;;17.06;43.76
47080;BME280;33067;49.296;14.470;2022-10-19T02:22:41;97892.89;;;17.31;44.26
47080;BME280;33067;49.296;14.470;2022-10-19T02:25:06;97887.96;;;16.92;44.26
47080;BME280;33067;49.296;14.470;2022-10-19T02:27:31;97890.36;;;16.98;44.32
47080;BME280;33067;49.296;14.470;2022-10-19T02:30:01;97885.09;;;16.68;44.51
47080;BME280;33067;49.296;14.470;2022-10-19T02:32:22;97887.17;;;16.21;45.07
47080;BME280;33067;49.296;14.470;2022-10-19T02:34:47;97882.82;;;16.25;45.22
47080;BME280;33067;49.296;14.470;2022-10-19T02:37:11;97876.69;;;16.46;45.51
47080;BME280;33067;49.296;14.470;2022-10-19T02:39:37;97874.90;;;16.46;45.47
47080;BME280;33067;49.296;14.470;2022-10-19T02:42:08;97875.49;;;16.20;45.61
47080;BME280;33067;49.296;14.470;2022-10-19T02:44:30;97881.07;;;16.22;45.64
47080;BME280;33067;49.296;14.470;2022-10-19T02:46:59;97882.22;;;16.27;45.66
47080;BME280;33067;49.296;14.470;2022-10-19T02:49:19;97877.97;;;16.36;45.69
47080;BME280;33067;49.296;14.470;2022-10-19T02:51:55;97875.79;;;16.64;45.88
47080;BME280;33067;49.296;14.470;2022-10-19T02:54:09;97876.89;;;16.45;46.12
47080;BME280;33067;49.296;14.470;2022-10-19T02:56:35;97874.82;;;16.49;45.90
47080;BME280;33067;49.296;14.470;2022-10-19T02:59:01;97872.44;;;16.29;45.91
47080;BME280;33067;49.296;14.470;2022-10-19T03:01:26;97870.33;;;16.43;46.02
47080;BME280;33067;49.296;14.470;2022-10-19T03:03:53;97877.17;;;16.58;45.96
47080;BME280;33067;49.296;14.470;2022-10-19T03:06:18;97875.90;;;16.40;45.94
47080;BME280;33067;49.296;14.470;2022-10-19T03:08:42;97871.08;;;16.43;46.00
47080;BME280;33067;49.296;14.470;2022-10-19T03:11:08;97861.94;;;16.46;46.01
47080;BME280;33067;49.296;14.470;2022-10-19T03:13:35;97862.84;;;16.45;45.91
47080;BME280;33067;49.296;14.470;2022-10-19T03:16:05;97861.18;;;16.37;45.94
47080;BME280;33067;49.296;14.470;2022-10-19T03:18:25;97858.85;;;16.39;45.99
47080;BME280;33067;49.296;14.470;2022-10-19T03:23:16;97851.49;;;16.42;46.00
47080;BME280;33067;49.296;14.470;2022-10-19T03:25:42;97851.58;;;16.45;45.91
47080;BME280;33067;49.296;14.470;2022-10-19T03:28:08;97847.22;;;16.47;45.96
47080;BME280;33067;49.296;14.470;2022-10-19T03:30:33;97840.90;;;16.52;45.91
47080;BME280;33067;49.296;14.470;2022-10-19T03:32:58;97841.16;;;16.55;45.99
47080;BME280;33067;49.296;14.470;2022-10-19T03:35:24;97842.85;;;16.58;46.03
47080;BME280;33067;49.296;14.470;2022-10-19T03:37:49;97840.99;;;16.62;45.91
47080;BME280;33067;49.296;14.470;2022-10-19T03:40:15;97843.58;;;16.62;46.00
47080;BME280;33067;49.296;14.470;2022-10-19T03:42:40;97841.48;;;16.27;45.78
47080;BME280;33067;49.296;14.470;2022-10-19T03:45:08;97839.38;;;16.55;46.10
47080;BME280;33067;49.296;14.470;2022-10-19T03:47:32;97840.39;;;16.37;46.34
47080;BME280;33067;49.296;14.470;2022-10-19T03:49:58;97846.69;;;16.28;46.62
47080;BME280;33067;49.296;14.470;2022-10-19T03:52:23;97848.66;;;16.28;46.65
47080;BME280;33067;49.296;14.470;2022-10-19T03:54:50;97847.84;;;16.24;46.68
47080;BME280;33067;49.296;14.470;2022-10-19T03:57:14;97850.11;;;16.28;46.68
47080;BME280;33067;49.296;14.470;2022-10-19T03:59:42;97848.79;;;16.38;46.67
47080;BME280;33067;49.296;14.470;2022-10-19T04:02:06;97843.72;;;16.28;46.43
47080;BME280;33067;49.296;14.470;2022-10-19T04:04:31;97846.97;;;16.16;46.39
47080;BME280;33067;49.296;14.470;2022-10-19T04:06:57;97850.56;;;16.22;46.03
47080;BME280;33067;49.296;14.470;2022-10-19T04:09:22;97850.73;;;16.58;45.42
47080;BME280;33067;49.296;14.470;2022-10-19T04:11:48;97851.16;;;16.78;45.01
47080;BME280;33067;49.296;14.470;2022-10-19T04:14:15;97851.08;;;16.96;44.70
47080;BME280;33067;49.296;14.470;2022-10-19T04:16:39;97854.53;;;17.12;44.19
47080;BME280;33067;49.296;14.470;2022-10-19T04:19:04;97857.32;;;17.12;44.03
47080;BME280;33067;49.296;14.470;2022-10-19T04:21:31;97855.95;;;17.17;43.98
47080;BME280;33067;49.296;14.470;2022-10-19T04:23:58;97855.83;;;16.97;43.99
47080;BME280;33067;49.296;14.470;2022-10-19T04:26:21;97855.63;;;17.27;44.03
47080;BME280;33067;49.296;14.470;2022-10-19T04:28:47;97852.10;;;17.10;43.97
47080;BME280;33067;49.296;14.470;2022-10-19T04:31:12;97850.75;;;17.31;43.75
47080;BME280;33067;49.296;14.470;2022-10-19T04:33:39;97845.41;;;17.19;43.90
47080;BME280;33067;49.296;14.470;2022-10-19T04:36:07;97842.91;;;17.26;44.01
47080;BME280;33067;49.296;14.470;2022-10-19T04:38:30;97841.24;;;17.32;43.88
47080;BME280;33067;49.296;14.470;2022-10-19T04:40:55;97838.34;;;17.11;43.80
47080;BME280;33067;49.296;14.470;2022-10-19T04:43:21;97839.80;;;17.15;43.89
47080;BME280;33067;49.296;14.470;2022-10-19T04:45:46;97836.45;;;17.19;43.98
47080;BME280;33067;49.296;14.470;2022-10-19T04:48:12;97836.95;;;17.49;43.87
47080;BME280;33067;49.296;14.470;2022-10-19T04:50:37;97839.45;;;17.38;43.89
47080;BME280;33067;49.296;14.470;2022-10-19T04:53:03;97843.96;;;17.23;44.11
47080;BME280;33067;49.296;14.470;2022-10-19T04:55:28;97844.21;;;16.82;44.77
47080;BME280;33067;49.296;14.470;2022-10-19T04:57:54;97846.14;;;17.02;44.77
47080;BME280;33067;49.296;14.470;2022-10-19T05:00:19;97847.71;;;17.06;44.87
47080;BME280;33067;49.296;14.470;2022-10-19T05:02:45;97846.78;;;16.90;45.24
47080;BME280;33067;49.296;14.470;2022-10-19T05:05:09;97841.21;;;16.48;46.04
47080;BME280;33067;49.296;14.470;2022-10-19T05:07:35;97838.63;;;16.77;45.98
47080;BME280;33067;49.296;14.470;2022-10-19T05:10:01;97840.46;;;16.52;45.78
47080;BME280;33067;49.296;14.470;2022-10-19T05:12:26;97836.83;;;17.37;44.77
47080;BME280;33067;49.296;14.470;2022-10-19T05:14:51;97839.06;;;17.04;44.76
47080;BME280;33067;49.296;14.470;2022-10-19T05:17:17;97840.58;;;17.51;44.85
47080;BME280;33067;49.296;14.470;2022-10-19T05:19:42;97838.47;;;17.51;44.79
47080;BME280;33067;49.296;14.470;2022-10-19T05:22:08;97837.56;;;17.29;44.71
47080;BME280;33067;49.296;14.470;2022-10-19T05:24:33;97834.97;;;17.30;44.76
47080;BME280;33067;49.296;14.470;2022-10-19T05:26:59;97832.06;;;17.63;44.52
47080;BME280;33067;49.296;14.470;2022-10-19T05:29:24;97832.99;;;17.39;44.56
47080;BME280;33067;49.296;14.470;2022-10-19T05:31:50;97829.94;;;17.39;44.74
47080;BME280;33067;49.296;14.470;2022-10-19T05:34:16;97829.08;;;17.52;45.00
47080;BME280;33067;49.296;14.470;2022-10-19T05:36:41;97829.09;;;17.14;44.70
47080;BME280;33067;49.296;14.470;2022-10-19T05:39:11;97827.50;;;17.49;44.60
47080;BME280;33067;49.296;14.470;2022-10-19T05:41:32;97824.94;;;17.35;44.80
47080;BME280;33067;49.296;14.470;2022-10-19T05:43:59;97824.36;;;17.10;44.85
47080;BME280;33067;49.296;14.470;2022-10-19T05:46:24;97825.94;;;17.69;44.63
47080;BME280;33067;49.296;14.470;2022-10-19T05:48:49;97831.12;;;17.25;44.90
47080;BME280;33067;49.296;14.470;2022-10-19T05:51:18;97832.14;;;17.09;45.00
47080;BME280;33067;49.296;14.470;2022-10-19T05:53:40;97839.75;;;17.34;45.14
47080;BME280;33067;49.296;14.470;2022-10-19T05:56:06;97842.06;;;17.45;45.34
47080;BME280;33067;49.296;14.470;2022-10-19T05:58:30;97843.54;;;17.27;45.35
47080;BME280;33067;49.296;14.470;2022-10-19T06:00:57;97841.37;;;17.07;45.27
47080;BME280;33067;49.296;14.470;2022-10-19T06:03:23;97836.14;;;17.41;45.33
47080;BME280;33067;49.296;14.470;2022-10-19T06:05:48;97842.32;;;17.32;45.30
47080;BME280;33067;49.296;14.470;2022-10-19T06:08:14;97845.44;;;17.18;45.21
47080;BME280;33067;49.296;14.470;2022-10-19T06:10:52;97850.76;;;17.47;45.08
47080;BME280;33067;49.296;14.470;2022-10-19T06:13:18;97852.50;;;17.50;44.88
47080;BME280;33067;49.296;14.470;2022-10-19T06:15:34;97852.06;;;17.28;45.15
47080;BME280;33067;49.296;14.470;2022-10-19T06:17:56;97855.45;;;17.49;45.36
47080;BME280;33067;49.296;14.470;2022-10-19T06:20:44;97856.06;;;17.44;45.15
47080;BME280;33067;49.296;14.470;2022-10-19T06:22:46;97858.43;;;17.49;44.92
47080;BME280;33067;49.296;14.470;2022-10-19T06:25:15;97865.01;;;17.58;44.76
47080;BME280;33067;49.296;14.470;2022-10-19T06:27:36;97872.35;;;17.14;45.17
47080;BME280;33067;49.296;14.470;2022-10-19T06:30:02;97875.27;;;17.39;45.54
47080;BME280;33067;49.296;14.470;2022-10-19T06:34:52;97877.81;;;16.67;46.07
47080;BME280;33067;49.296;14.470;2022-10-19T06:37:18;97877.37;;;16.80;45.83
47080;BME280;33067;49.296;14.470;2022-10-19T06:39:49;97877.41;;;17.40;45.78
47080;BME280;33067;49.296;14.470;2022-10-19T06:42:09;97879.01;;;16.63;46.37
47080;BME280;33067;49.296;14.470;2022-10-19T06:44:40;97879.52;;;16.75;46.33
47080;BME280;33067;49.296;14.470;2022-10-19T06:47:01;97881.94;;;16.88;45.89
47080;BME280;33067;49.296;14.470;2022-10-19T06:49:26;97883.98;;;16.81;45.91
47080;BME280;33067;49.296;14.470;2022-10-19T06:51:59;97880.51;;;17.36;45.51
47080;BME280;33067;49.296;14.470;2022-10-19T06:54:25;97883.02;;;17.49;45.49
47080;BME280;33067;49.296;14.470;2022-10-19T06:56:43;97886.18;;;17.49;45.43
47080;BME280;33067;49.296;14.470;2022-10-19T06:59:08;97887.18;;;17.14;45.41
47080;BME280;33067;49.296;14.470;2022-10-19T07:01:44;97891.13;;;17.34;45.31
47080;BME280;33067;49.296;14.470;2022-10-19T07:04:10;97895.10;;;17.48;45.34
47080;BME280;33067;49.296;14.470;2022-10-19T07:06:27;97898.24;;;17.05;45.49
47080;BME280;33067;49.296;14.470;2022-10-19T07:08:51;97899.40;;;17.22;45.41
47080;BME280;33067;49.296;14.470;2022-10-19T07:11:26;97903.22;;;17.68;45.24
47080;BME280;33067;49.296;14.470;2022-10-19T07:13:52;97901.03;;;17.46;45.11
47080;BME280;33067;49.296;14.470;2022-10-19T07:16:09;97903.27;;;17.66;44.93
47080;BME280;33067;49.296;14.470;2022-10-19T07:18:33;97903.87;;;17.83;45.00
47080;BME280;33067;49.296;14.470;2022-10-19T07:20:59;97905.88;;;17.58;45.06
47080;BME280;33067;49.296;14.470;2022-10-19T07:23:23;97902.36;;;17.61;45.17
47080;BME280;33067;49.296;14.470;2022-10-19T07:25:48;97902.08;;;17.94;45.19
47080;BME280;33067;49.296;14.470;2022-10-19T07:28:13;97902.68;;;17.90;45.24
47080;BME280;33067;49.296;14.470;2022-10-19T07:30:39;97904.90;;;17.93;44.93
47080;BME280;33067;49.296;14.470;2022-10-19T07:33:22;97906.47;;;17.62;45.01
47080;BME280;33067;49.296;14.470;2022-10-19T07:40:25;97912.78;;;17.54;45.15
47080;BME280;33067;49.296;14.470;2022-10-19T07:42:52;97910.47;;;17.79;44.84
47080;BME280;33067;49.296;14.470;2022-10-19T07:45:22;97906.44;;;17.88;45.15
47080;BME280;33067;49.296;14.470;2022-10-19T07:47:44;97907.28;;;17.96;45.21
47080;BME280;33067;49.296;14.470;2022-10-19T07:50:02;97907.48;;;17.86;45.35
47080;BME280;33067;49.296;14.470;2022-10-19T07:52:35;97904.71;;;17.86;44.79
47080;BME280;33067;49.296;14.470;2022-10-19T07:54:53;97907.38;;;18.30;44.61
47080;BME280;33067;49.296;14.470;2022-10-19T07:57:34;97909.68;;;18.02;44.36
47080;BME280;33067;49.296;14.470;2022-10-19T07:59:44;97905.33;;;18.28;44.03
47080;BME280;33067;49.296;14.470;2022-10-19T08:02:14;97899.46;;;18.39;43.62
47080;BME280;33067;49.296;14.470;2022-10-19T08:04:35;97903.19;;;17.91;43.68
47080;BME280;33067;49.296;14.470;2022-10-19T08:07:12;97909.17;;;17.82;44.03
47080;BME280;33067;49.296;14.470;2022-10-19T08:09:25;97912.23;;;17.85;44.34
47080;BME280;33067;49.296;14.470;2022-10-19T08:11:51;97916.68;;;17.87;44.30
47080;BME280;33067;49.296;14.470;2022-10-19T08:14:28;97922.30;;;16.84;45.48
47080;BME280;33067;49.296;14.470;2022-10-19T08:16:43;97925.24;;;16.98;45.78
47080;BME280;33067;49.296;14.470;2022-10-19T08:19:14;97925.91;;;16.91;45.61
47080;BME280;33067;49.296;14.470;2022-10-19T08:21:38;97923.15;;;17.89;44.36
47080;BME280;33067;49.296;14.470;2022-10-19T08:24:06;97920.87;;;17.39;44.54
47080;BME280;33067;49.296;14.470;2022-10-19T08:26:42;97923.53;;;18.08;43.68
47080;BME280;33067;49.296;14.470;2022-10-19T08:29:21;97919.08;;;17.98;43.69
47080;BME280;33067;49.296;14.470;2022-10-19T08:31:16;97917.67;;;17.62;43.56
47080;BME280;33067;49.296;14.470;2022-10-19T08:33:47;97927.56;;;16.99;43.91
47080;BME280;33067;49.296;14.470;2022-10-19T08:36:07;97929.30;;;17.35;43.53
47080;BME280;33067;49.296;14.470;2022-10-19T08:38:33;97930.66;;;16.33;45.33
47080;BME280;33067;49.296;14.470;2022-10-19T08:40:57;97932.12;;;16.34;45.41
47080;BME280;33067;49.296;14.470;2022-10-19T08:43:32;97930.74;;;16.56;45.03
47080;BME280;33067;49.296;14.470;2022-10-19T08:45:57;97926.44;;;16.19;44.89
47080;BME280;33067;49.296;14.470;2022-10-19T08:48:22;97929.70;;;16.10;45.30
47080;BME280;33067;49.296;14.470;2022-10-19T08:50:39;97942.27;;;15.76;45.31
47080;BME280;33067;49.296;14.470;2022-10-19T08:53:06;97943.97;;;15.19;45.96
47080;BME280;33067;49.296;14.470;2022-10-19T08:55:39;97944.47;;;14.90;46.51
47080;BME280;33067;49.296;14.470;2022-10-19T08:58:01;97941.65;;;15.78;45.28
47080;BME280;33067;49.296;14.470;2022-10-19T09:00:27;97939.30;;;16.37;44.25
47080;BME280;33067;49.296;14.470;2022-10-19T09:02:56;97940.65;;;16.05;44.59
47080;BME280;33067;49.296;14.470;2022-10-19T09:07:50;97943.58;;;15.64;44.36
47080;BME280;33067;49.296;14.470;2022-10-19T09:10:07;97951.79;;;15.68;44.29
47080;BME280;33067;49.296;14.470;2022-10-19T09:12:55;97953.81;;;15.29;44.39
47080;BME280;33067;49.296;14.470;2022-10-19T09:15:40;97950.33;;;15.25;45.00
47080;BME280;33067;49.296;14.470;2022-10-19T09:20:14;97951.31;;;15.89;43.46
47080;BME280;33067;49.296;14.470;2022-10-19T09:22:18;97953.04;;;14.59;45.25
47080;BME280;33067;49.296;14.470;2022-10-19T09:24:40;97957.13;;;14.74;45.23
47080;BME280;33067;49.296;14.470;2022-10-19T09:27:02;97951.42;;;14.87;45.60
47080;BME280;33067;49.296;14.470;2022-10-19T09:29:34;97957.40;;;15.05;44.76
47080;BME280;33067;49.296;14.470;2022-10-19T09:31:54;97952.88;;;15.95;43.55
47080;BME280;33067;49.296;14.470;2022-10-19T09:34:21;97955.51;;;16.03;43.28
47080;BME280;33067;49.296;14.470;2022-10-19T09:36:45;97956.29;;;15.76;43.05
47080;BME280;33067;49.296;14.470;2022-10-19T09:39:10;97949.50;;;16.69;42.06
47080;BME280;33067;49.296;14.470;2022-10-19T09:41:35;97956.12;;;16.00;42.59
47080;BME280;33067;49.296;14.470;2022-10-19T09:44:00;97955.11;;;16.01;42.57
47080;BME280;33067;49.296;14.470;2022-10-19T09:46:33;97958.42;;;16.29;42.10
47080;BME280;33067;49.296;14.470;2022-10-19T09:48:51;97956.35;;;17.10;41.46
47080;BME280;33067;49.296;14.470;2022-10-19T09:51:17;97959.82;;;16.75;41.72
47080;BME280;33067;49.296;14.470;2022-10-19T09:53:44;97958.50;;;16.58;41.19
47080;BME280;33067;49.296;14.470;2022-10-19T09:56:08;97955.83;;;16.73;40.63
47080;BME280;33067;49.296;14.470;2022-10-19T09:58:34;97957.85;;;16.76;40.18
47080;BME280;33067;49.296;14.470;2022-10-19T10:08:18;97966.18;;;16.65;40.46
47080;BME280;33067;49.296;14.470;2022-10-19T10:10:43;97966.88;;;16.64;40.21
47080;BME280;33067;49.296;14.470;2022-10-19T10:13:06;97967.23;;;16.94;39.51
47080;BME280;33067;49.296;14.470;2022-10-19T10:15:44;97969.86;;;16.63;39.98
47080;BME280;33067;49.296;14.470;2022-10-19T10:18:00;97966.90;;;17.08;38.81
47080;BME280;33067;49.296;14.470;2022-10-19T10:20:26;97969.32;;;17.29;38.23
47080;BME280;33067;49.296;14.470;2022-10-19T10:22:54;97970.98;;;17.08;38.64
47080;BME280;33067;49.296;14.470;2022-10-19T10:25:28;97968.44;;;16.47;38.53
47080;BME280;33067;49.296;14.470;2022-10-19T10:27:39;97967.16;;;16.99;37.88
47080;BME280;33067;49.296;14.470;2022-10-19T10:30:15;97966.86;;;17.18;37.45
47080;BME280;33067;49.296;14.470;2022-10-19T10:32:29;97964.07;;;16.28;38.60
47080;BME280;33067;49.296;14.470;2022-10-19T10:34:57;97966.39;;;16.89;37.95
47080;BME280;33067;49.296;14.470;2022-10-19T10:37:22;97961.78;;;17.05;38.06
47080;BME280;33067;49.296;14.470;2022-10-19T10:39:50;97964.91;;;16.88;37.92
47080;BME280;33067;49.296;14.470;2022-10-19T10:42:15;97960.22;;;16.66;37.71
47080;BME280;33067;49.296;14.470;2022-10-19T10:44:37;97955.54;;;16.22;38.38
47080;BME280;33067;49.296;14.470;2022-10-19T10:47:04;97958.10;;;15.68;40.14
47080;BME280;33067;49.296;14.470;2022-10-19T10:49:29;97950.15;;;16.85;38.36
47080;BME280;33067;49.296;14.470;2022-10-19T10:51:55;97946.70;;;17.39;37.45
47080;BME280;33067;49.296;14.470;2022-10-19T10:54:19;97946.38;;;17.49;37.22
47080;BME280;33067;49.296;14.470;2022-10-19T10:59:14;97940.53;;;17.99;36.35
47080;BME280;33067;49.296;14.470;2022-10-19T11:01:39;97936.38;;;17.58;36.47
47080;BME280;33067;49.296;14.470;2022-10-19T11:04:04;97937.29;;;17.06;36.64
47080;BME280;33067;49.296;14.470;2022-10-19T11:06:26;97935.42;;;17.17;36.89
47080;BME280;33067;49.296;14.470;2022-10-19T11:09:04;97935.46;;;17.21;36.77
47080;BME280;33067;49.296;14.470;2022-10-19T11:11:29;97933.13;;;16.77;36.47
47080;BME280;33067;49.296;14.470;2022-10-19T11:16:14;97928.75;;;17.31;36.02
47080;BME280;33067;49.296;14.470;2022-10-19T11:18:35;97924.60;;;17.12;36.34
47080;BME280;33067;49.296;14.470;2022-10-19T11:21:03;97921.58;;;17.29;35.95
47080;BME280;33067;49.296;14.470;2022-10-19T11:23:39;97918.09;;;17.44;36.23
47080;BME280;33067;49.296;14.470;2022-10-19T11:25:56;97912.85;;;16.93;35.91
47080;BME280;33067;49.296;14.470;2022-10-19T11:28:22;97910.51;;;17.37;35.77
47080;BME280;33067;49.296;14.470;2022-10-19T11:30:49;97902.31;;;17.52;35.20
47080;BME280;33067;49.296;14.470;2022-10-19T11:33:09;97906.76;;;18.50;34.80
47080;BME280;33067;49.296;14.470;2022-10-19T14:59:11;97837.26;;;15.57;36.19
47080;BME280;33067;49.296;14.470;2022-10-19T15:01:31;97839.39;;;15.79;35.81
47080;BME280;33067;49.296;14.470;2022-10-19T15:03:56;97833.38;;;15.62;36.33
47080;BME280;33067;49.296;14.470;2022-10-19T15:06:24;97832.08;;;15.12;36.13
47080;BME280;33067;49.296;14.470;2022-10-19T15:08:49;97829.05;;;15.06;36.19
47080;BME280;33067;49.296;14.470;2022-10-19T15:11:20;97834.63;;;14.77;36.69
47080;BME280;33067;49.296;14.470;2022-10-19T15:13:55;97832.75;;;15.30;36.53
47080;BME280;33067;49.296;14.470;2022-10-19T15:16:05;97830.96;;;15.00;36.38
47080;BME280;33067;49.296;14.470;2022-10-19T15:18:35;97826.43;;;15.45;35.92
47080;BME280;33067;49.296;14.470;2022-10-19T15:21:01;97824.69;;;16.03;35.73
47080;BME280;33067;49.296;14.470;2022-10-19T15:23:33;97827.85;;;15.12;36.82
47080;BME280;33067;49.296;14.470;2022-10-19T15:28:26;97834.98;;;15.26;36.34
47080;BME280;33067;49.296;14.470;2022-10-19T15:30:37;97833.53;;;15.18;36.39
47080;BME280;33067;49.296;14.470;2022-10-19T15:33:13;97833.99;;;14.98;37.00
47080;BME280;33067;49.296;14.470;2022-10-19T15:35:30;97838.58;;;15.07;37.02
47080;BME280;33067;49.296;14.470;2022-10-19T15:38:00;97832.72;;;15.63;36.09
47080;BME280;33067;49.296;14.470;2022-10-19T15:40:24;97833.98;;;14.87;37.19
47080;BME280;33067;49.296;14.470;2022-10-19T15:42:45;97832.45;;;15.03;36.83
47080;BME280;33067;49.296;14.470;2022-10-19T15:45:26;97829.64;;;15.63;36.63
47080;BME280;33067;49.296;14.470;2022-10-19T15:47:37;97830.55;;;15.55;36.45
47080;BME280;33067;49.296;14.470;2022-10-19T15:50:06;97830.41;;;15.65;36.38
47080;BME280;33067;49.296;14.470;2022-10-19T15:52:29;97832.93;;;15.27;36.80
47080;BME280;33067;49.296;14.470;2022-10-19T15:54:55;97834.21;;;15.46;36.37
47080;BME280;33067;49.296;14.470;2022-10-19T15:57:25;97834.94;;;15.89;36.03
47080;BME280;33067;49.296;14.470;2022-10-19T15:59:44;97837.32;;;15.99;35.92
47080;BME280;33067;49.296;14.470;2022-10-19T16:02:12;97834.56;;;15.71;35.88
47080;BME280;33067;49.296;14.470;2022-10-19T16:04:34;97829.98;;;15.72;36.06
47080;BME280;33067;49.296;14.470;2022-10-19T16:07:00;97831.48;;;15.90;35.77
47080;BME280;33067;49.296;14.470;2022-10-19T16:09:25;97837.16;;;15.83;35.80
47080;BME280;33067;49.296;14.470;2022-10-19T16:11:51;97836.68;;;15.92;35.87
47080;BME280;33067;49.296;14.470;2022-10-19T16:14:17;97833.72;;;15.50;36.14
47080;BME280;33067;49.296;14.470;2022-10-19T16:16:42;97835.19;;;15.52;36.50
47080;BME280;33067;49.296;14.470;2022-10-19T16:19:08;97838.09;;;15.71;36.23
47080;BME280;33067;49.296;14.470;2022-10-19T16:21:34;97841.86;;;15.73;36.21
47080;BME280;33067;49.296;14.470;2022-10-19T16:23:58;97847.30;;;15.67;36.27
47080;BME280;33067;49.296;14.470;2022-10-19T16:26:24;97853.75;;;14.98;37.13
47080;BME280;33067;49.296;14.470;2022-10-19T16:28:48;97858.27;;;15.05;37.17
47080;BME280;33067;49.296;14.470;2022-10-19T16:31:14;97859.52;;;14.71;37.37
47080;BME280;33067;49.296;14.470;2022-10-19T16:33:40;97865.54;;;14.83;37.12
47080;BME280;33067;49.296;14.470;2022-10-19T16:36:06;97869.85;;;15.11;36.83
47080;BME280;33067;49.296;14.470;2022-10-19T16:38:30;97869.53;;;15.00;36.75